Terminal Aerodrome Forecast
Issued by NWS

Current Version | Previous Version | Text Only | Print | Product List | Glossary On
Versions: 1 2 3 4 5 6 7 8 9 10 11 12 13 14 15 16 17 18 19 20 21 22 23 24 25 26 27 28 29 30 31
000
FTUS43 KGRR 011900 AAB
TAFAZO
TAF AMD
KAZO 011952Z 0120/0218 26012G20KT P6SM SCT025 BKN035
     FM020000 24010KT 6SM HZ VCSH BKN025
     FM020700 28005KT P6SM BKN050=

USA.gov is the U.S. government's official web portal to all federal, state and local government web resources and services.